createdAt,value
2023-05-07T00:00:50.785Z,99118.36
2023-05-07T00:03:23.463Z,99116.95
2023-05-07T00:05:51.472Z,99116.72
2023-05-07T00:08:19.771Z,99118.89
2023-05-07T00:10:48.042Z,99116.12
2023-05-07T00:13:15.995Z,99109.36
2023-05-07T00:15:43.864Z,99103.00
2023-05-07T00:18:11.541Z,99104.03
2023-05-07T00:20:39.281Z,99106.84
2023-05-07T00:23:07.464Z,99110.88
2023-05-07T00:25:35.735Z,99113.17
2023-05-07T00:28:24.152Z,99114.86
2023-05-07T00:30:51.848Z,99115.61
2023-05-07T00:33:21.493Z,99116.21
2023-05-07T00:35:50.190Z,99120.11
2023-05-07T00:38:18.406Z,99120.23
2023-05-07T00:40:46.526Z,99119.62
2023-05-07T00:43:14.261Z,99118.21
2023-05-07T00:45:41.973Z,99121.02
2023-05-07T00:48:09.753Z,99126.92
2023-05-07T00:50:38.061Z,99124.77
2023-05-07T00:53:07.107Z,99120.89
2023-05-07T00:55:36.091Z,99122.73
2023-05-07T00:58:03.849Z,99120.78
2023-05-07T01:00:31.600Z,99118.92
2023-05-07T01:02:59.423Z,99117.17
2023-05-07T01:05:29.178Z,99123.94
2023-05-07T01:07:59.046Z,99129.08
2023-05-07T01:10:27.255Z,99130.11
2023-05-07T01:12:55.468Z,99133.66
2023-05-07T01:15:23.239Z,99135.80
2023-05-07T01:17:51.056Z,99136.11
2023-05-07T01:20:20.741Z,99138.73
2023-05-07T01:22:50.419Z,99145.59
2023-05-07T01:25:19.362Z,99148.42
2023-05-07T01:27:47.710Z,99152.27
2023-05-07T01:30:16.273Z,99147.27
2023-05-07T01:33:00.825Z,99150.05
2023-05-07T01:35:34.048Z,99155.14
2023-05-07T01:38:05.589Z,99152.19
2023-05-07T01:40:35.140Z,99154.15
2023-05-07T01:43:07.326Z,99159.25
2023-05-07T01:45:35.768Z,99159.86
2023-05-07T01:48:04.325Z,99165.44
2023-05-07T01:50:33.402Z,99168.91
2023-05-07T01:53:02.676Z,99168.48
2023-05-07T01:55:30.373Z,99169.06
2023-05-07T01:57:58.181Z,99165.45
2023-05-07T02:00:27.960Z,99164.42
2023-05-07T02:02:56.141Z,99159.96
2023-05-07T02:05:24.350Z,99158.52
2023-05-07T02:07:52.069Z,99160.54
2023-05-07T02:10:19.783Z,99161.08
2023-05-07T02:12:47.625Z,99159.95
2023-05-07T02:15:15.858Z,99159.13
2023-05-07T02:18:04.287Z,99153.86
2023-05-07T02:20:32.090Z,99157.33
2023-05-07T02:22:59.823Z,99152.10
2023-05-07T02:25:28.084Z,99153.88
2023-05-07T02:27:55.765Z,99155.30
2023-05-07T02:30:23.537Z,99159.89
2023-05-07T02:32:51.333Z,99165.48
2023-05-07T02:35:19.178Z,99165.77
2023-05-07T02:37:47.294Z,99163.84
2023-05-07T02:40:15.540Z,99163.23
2023-05-07T02:42:43.248Z,99164.73
2023-05-07T02:45:11.317Z,99169.05
2023-05-07T02:47:39.072Z,99170.83
2023-05-07T02:50:07.633Z,99170.02
2023-05-07T02:52:35.415Z,99173.11
2023-05-07T02:55:03.784Z,99175.73
2023-05-07T02:57:31.466Z,99178.40
2023-05-07T03:00:00.207Z,99179.73
2023-05-07T03:02:28.005Z,99184.41
2023-05-07T03:04:55.710Z,99189.45
2023-05-07T03:07:23.393Z,99191.21
2023-05-07T03:09:51.174Z,99195.98
2023-05-07T03:12:18.874Z,99191.37
2023-05-07T03:14:46.551Z,99193.17
2023-05-07T03:17:14.230Z,99197.59
2023-05-07T03:19:41.902Z,99196.06
2023-05-07T03:22:09.675Z,99194.20
2023-05-07T03:24:37.399Z,99197.44
2023-05-07T03:27:05.733Z,99199.48
2023-05-07T03:29:33.435Z,99202.78
2023-05-07T03:32:01.224Z,99207.77
2023-05-07T03:34:28.925Z,99210.81
2023-05-07T03:36:56.961Z,99210.44
2023-05-07T03:39:25.250Z,99215.90
2023-05-07T03:41:53.964Z,99220.84
2023-05-07T03:44:21.692Z,99222.13
2023-05-07T03:46:49.470Z,99228.80
2023-05-07T03:49:17.183Z,99231.61
2023-05-07T03:51:44.851Z,99232.27
2023-05-07T03:54:13.064Z,99232.33
2023-05-07T03:56:41.460Z,99235.34
2023-05-07T03:59:09.247Z,99237.66
2023-05-07T04:01:37.028Z,99240.02
2023-05-07T04:04:05.487Z,99241.45
2023-05-07T04:06:33.332Z,99245.30
2023-05-07T04:09:01.129Z,99243.70
2023-05-07T04:11:28.856Z,99248.68
2023-05-07T04:13:57.092Z,99249.52
2023-05-07T04:16:24.906Z,99247.43
2023-05-07T04:18:52.606Z,99248.15
2023-05-07T04:21:21.856Z,99252.56
2023-05-07T04:23:50.549Z,99258.48
2023-05-07T04:26:18.780Z,99259.42
2023-05-07T04:28:46.660Z,99263.03
2023-05-07T04:31:14.365Z,99265.27
2023-05-07T04:33:42.160Z,99268.04
2023-05-07T04:36:09.938Z,99273.87
2023-05-07T04:38:37.980Z,99280.95
2023-05-07T04:41:07.604Z,99281.66
2023-05-07T04:43:35.531Z,99282.44
2023-05-07T04:46:03.282Z,99282.33
2023-05-07T04:48:31.127Z,99282.15
2023-05-07T04:50:58.841Z,99283.25
2023-05-07T04:53:26.682Z,99280.95
2023-05-07T04:55:58.966Z,99284.86
2023-05-07T04:58:26.667Z,99285.83
2023-05-07T05:00:54.697Z,99288.92
2023-05-07T05:03:22.432Z,99291.84
2023-05-07T05:05:52.663Z,99293.61
2023-05-07T05:08:21.343Z,99292.14
2023-05-07T05:10:51.034Z,99292.92
2023-05-07T05:13:19.033Z,99298.86
2023-05-07T05:15:47.161Z,99302.68
2023-05-07T05:18:14.952Z,99306.17
2023-05-07T05:20:43.254Z,99312.50
2023-05-07T05:23:11.096Z,99314.17
2023-05-07T05:25:40.426Z,99318.85
2023-05-07T05:28:08.327Z,99323.90
2023-05-07T05:30:36.657Z,99323.76
2023-05-07T05:33:04.980Z,99325.45
2023-05-07T05:35:32.943Z,99327.52
2023-05-07T05:38:00.703Z,99326.61
2023-05-07T05:40:28.534Z,99326.33
2023-05-07T05:42:56.283Z,99329.58
2023-05-07T05:45:24.069Z,99327.88
2023-05-07T05:47:52.589Z,99332.96
2023-05-07T05:50:20.308Z,99337.04
2023-05-07T05:52:48.599Z,99337.34
2023-05-07T05:55:16.352Z,99339.31
2023-05-07T05:57:44.111Z,99342.92
2023-05-07T06:00:12.767Z,99340.69
2023-05-07T06:02:41.358Z,99339.65
2023-05-07T06:05:10.009Z,99346.07
2023-05-07T06:07:37.728Z,99344.86
2023-05-07T06:10:06.213Z,99341.33
2023-05-07T06:12:33.963Z,99345.96
2023-05-07T06:15:02.828Z,99349.54
2023-05-07T06:17:31.719Z,99354.77
2023-05-07T06:19:59.473Z,99354.64
2023-05-07T06:22:27.212Z,99356.63
2023-05-07T06:24:54.909Z,99363.22
2023-05-07T06:27:22.647Z,99360.64
2023-05-07T06:29:50.641Z,99368.23
2023-05-07T06:32:19.548Z,99370.59
2023-05-07T06:34:47.249Z,99372.79
2023-05-07T06:37:15.012Z,99374.89
2023-05-07T06:39:42.690Z,99381.28
2023-05-07T06:42:10.395Z,99383.08
2023-05-07T06:44:38.111Z,99387.77
2023-05-07T06:47:06.471Z,99389.35
2023-05-07T06:49:34.369Z,99388.82
2023-05-07T06:52:02.097Z,99388.98
2023-05-07T06:54:30.370Z,99390.98
2023-05-07T06:56:58.039Z,99400.39
2023-05-07T06:59:25.802Z,99401.27
2023-05-07T07:01:54.254Z,99408.52
2023-05-07T07:04:24.223Z,99407.68
2023-05-07T07:06:53.571Z,99405.67
2023-05-07T07:09:23.290Z,99402.14
2023-05-07T07:11:51.717Z,99407.60
2023-05-07T07:14:19.456Z,99408.48
2023-05-07T07:16:47.904Z,99414.27
2023-05-07T07:19:16.390Z,99423.48
2023-05-07T07:21:44.647Z,99432.05
2023-05-07T07:24:12.435Z,99430.68
2023-05-07T07:26:41.096Z,99431.95
2023-05-07T07:29:09.012Z,99433.75
2023-05-07T07:31:37.227Z,99445.45
2023-05-07T07:34:04.942Z,99442.46
2023-05-07T07:36:42.816Z,99445.42
2023-05-07T07:39:14.648Z,99446.07
2023-05-07T07:41:43.023Z,99455.16
2023-05-07T07:44:15.932Z,99458.39
2023-05-07T07:46:44.185Z,99461.23
2023-05-07T07:49:11.870Z,99463.86
2023-05-07T07:51:40.244Z,99464.75
2023-05-07T07:54:08.498Z,99466.32
2023-05-07T07:56:36.419Z,99462.92
2023-05-07T07:59:04.123Z,99463.47
2023-05-07T08:01:32.235Z,99462.98
2023-05-07T08:04:00.817Z,99467.81
2023-05-07T08:06:29.381Z,99471.53
2023-05-07T08:08:57.242Z,99469.73
2023-05-07T08:11:25.025Z,99472.22
2023-05-07T08:13:52.906Z,99479.80
2023-05-07T08:16:24.079Z,99481.12
2023-05-07T08:18:54.221Z,99486.36
2023-05-07T08:21:23.537Z,99482.11
2023-05-07T08:23:51.367Z,99485.48
2023-05-07T08:26:19.086Z,99488.55
2023-05-07T08:28:46.839Z,99491.38
2023-05-07T08:31:15.173Z,99496.54
2023-05-07T08:33:43.442Z,99503.36
2023-05-07T08:36:11.219Z,99502.85
2023-05-07T08:38:41.707Z,99508.09
2023-05-07T08:41:11.455Z,99516.64
2023-05-07T08:43:43.055Z,99517.30
2023-05-07T08:46:13.087Z,99516.22
2023-05-07T08:48:40.900Z,99519.06
2023-05-07T08:51:14.956Z,99523.90
2023-05-07T08:53:43.307Z,99531.61
2023-05-07T08:56:12.802Z,99535.05
2023-05-07T08:58:41.259Z,99535.50
2023-05-07T09:01:14.712Z,99540.12
2023-05-07T09:03:45.516Z,99538.29
2023-05-07T09:06:13.823Z,99538.03
2023-05-07T09:08:41.647Z,99536.27
2023-05-07T09:11:11.668Z,99544.20
2023-05-07T09:13:42.339Z,99543.55
2023-05-07T09:16:13.850Z,99545.21
2023-05-07T09:18:45.981Z,99548.31
2023-05-07T09:21:19.022Z,99556.20
2023-05-07T09:23:54.233Z,99559.27
2023-05-07T09:26:23.441Z,99562.92
2023-05-07T09:28:51.629Z,99567.41
2023-05-07T09:31:21.622Z,99571.72
2023-05-07T09:33:51.053Z,99577.23
2023-05-07T09:36:19.121Z,99580.10
2023-05-07T09:38:47.458Z,99583.23
2023-05-07T09:41:16.404Z,99589.25
2023-05-07T09:43:44.296Z,99585.14
2023-05-07T09:46:17.855Z,99589.27
2023-05-07T09:48:47.995Z,99594.96
2023-05-07T09:51:28.108Z,99595.76
2023-05-07T09:53:58.018Z,99601.30
2023-05-07T09:56:27.768Z,99607.15
2023-05-07T09:58:58.754Z,99613.23
2023-05-07T10:01:28.311Z,99613.34
2023-05-07T10:03:58.423Z,99616.34
2023-05-07T10:06:26.838Z,99615.46
2023-05-07T10:08:56.632Z,99621.42
2023-05-07T10:11:25.086Z,99623.30
2023-05-07T10:13:54.013Z,99625.89
2023-05-07T10:16:22.596Z,99629.88
2023-05-07T10:18:51.103Z,99632.76
2023-05-07T10:21:21.108Z,99638.54
2023-05-07T10:24:21.346Z,99636.98
2023-05-07T10:26:52.516Z,99633.06
2023-05-07T10:29:33.982Z,99632.74
2023-05-07T10:32:34.492Z,99631.55
2023-05-07T10:35:06.483Z,99636.63
2023-05-07T10:37:35.887Z,99635.52
2023-05-07T10:40:04.015Z,99634.64
2023-05-07T10:42:31.744Z,99640.56
2023-05-07T10:45:14.496Z,99638.48
2023-05-07T10:48:20.946Z,99640.02
2023-05-07T10:51:22.893Z,99647.42
2023-05-07T10:54:10.855Z,99649.16
2023-05-07T10:56:40.300Z,99654.58
2023-05-07T10:59:31.797Z,99656.06
2023-05-07T11:02:03.653Z,99657.86
2023-05-07T11:04:35.823Z,99660.44
2023-05-07T11:07:10.514Z,99662.93
2023-05-07T11:09:54.450Z,99662.14
2023-05-07T11:12:37.455Z,99666.55
2023-05-07T11:15:10.197Z,99670.29
2023-05-07T11:17:59.669Z,99672.23
2023-05-07T11:20:47.210Z,99671.92
2023-05-07T11:23:33.257Z,99674.45
2023-05-07T11:26:01.574Z,99673.91
2023-05-07T11:28:31.098Z,99678.27
2023-05-07T11:31:02.272Z,99685.60
2023-05-07T11:33:33.734Z,99688.56
2023-05-07T11:36:06.136Z,99694.54
2023-05-07T11:38:42.350Z,99701.41
2023-05-07T11:41:11.441Z,99703.08
2023-05-07T11:43:41.075Z,99702.45
2023-05-07T11:46:13.495Z,99709.14
2023-05-07T11:48:42.624Z,99712.39
2023-05-07T11:51:13.130Z,99711.77
2023-05-07T11:53:43.973Z,99709.69
2023-05-07T11:56:14.233Z,99714.38
2023-05-07T11:58:43.483Z,99714.13
2023-05-07T12:01:12.621Z,99712.63
2023-05-07T12:03:47.064Z,99708.83
2023-05-07T12:06:17.796Z,99713.30
2023-05-07T12:08:48.236Z,99714.48
2023-05-07T12:11:22.780Z,99718.52
2023-05-07T12:13:51.068Z,99723.66
2023-05-07T12:16:20.542Z,99727.14
2023-05-07T12:18:48.827Z,99723.05
2023-05-07T12:21:18.358Z,99723.27
2023-05-07T12:23:46.335Z,99729.28
2023-05-07T12:26:14.069Z,99726.40
2023-05-07T12:28:42.463Z,99721.13
2023-05-07T12:31:11.596Z,99726.95
2023-05-07T12:33:39.573Z,99726.78
2023-05-07T12:36:08.983Z,99726.77
2023-05-07T12:38:41.805Z,99725.92
2023-05-07T12:41:11.972Z,99722.23
2023-05-07T12:43:40.406Z,99728.39
2023-05-07T12:46:09.647Z,99733.38
2023-05-07T12:48:39.823Z,99735.79
2023-05-07T12:51:08.848Z,99738.37
2023-05-07T12:53:45.698Z,99737.66
2023-05-07T12:56:17.090Z,99747.56
2023-05-07T12:58:44.806Z,99751.79
2023-05-07T13:01:16.641Z,99751.95
2023-05-07T13:03:51.430Z,99757.30
2023-05-07T13:06:19.356Z,99759.95
2023-05-07T13:08:47.709Z,99758.88
2023-05-07T13:11:15.456Z,99764.80
2023-05-07T13:13:43.317Z,99763.81
2023-05-07T13:16:13.056Z,99765.73
2023-05-07T13:18:42.111Z,99767.27
2023-05-07T13:21:11.209Z,99766.85
2023-05-07T13:23:39.809Z,99766.39
2023-05-07T13:26:24.892Z,99769.24
2023-05-07T13:28:55.424Z,99771.10
2023-05-07T13:31:23.732Z,99772.71
2023-05-07T13:33:51.803Z,99776.73
2023-05-07T13:36:20.323Z,99771.63
2023-05-07T13:38:48.130Z,99770.98
2023-05-07T13:41:16.093Z,99773.53
2023-05-07T13:43:44.568Z,99774.19
2023-05-07T13:46:12.460Z,99775.42
2023-05-07T13:48:40.278Z,99771.91
2023-05-07T13:51:08.328Z,99774.06
2023-05-07T13:53:36.646Z,99770.67
2023-05-07T13:56:05.780Z,99777.40
2023-05-07T13:58:33.927Z,99773.21
2023-05-07T14:01:02.225Z,99775.33
2023-05-07T14:03:31.003Z,99780.22
2023-05-07T14:06:00.973Z,99786.14
2023-05-07T14:08:31.898Z,99790.41
2023-05-07T14:10:59.959Z,99787.81
2023-05-07T14:13:28.621Z,99787.62
2023-05-07T14:15:57.005Z,99788.62
2023-05-07T14:18:24.779Z,99791.85
2023-05-07T14:20:52.537Z,99793.70
2023-05-07T14:23:20.706Z,99796.60
2023-05-07T14:25:48.897Z,99802.45
2023-05-07T14:28:16.616Z,99809.54
2023-05-07T14:30:44.853Z,99810.90
2023-05-07T14:33:12.755Z,99813.70
2023-05-07T14:35:40.684Z,99820.95
2023-05-07T14:38:08.388Z,99818.09
2023-05-07T14:40:36.635Z,99817.98
2023-05-07T14:43:04.369Z,99824.16
2023-05-07T14:45:32.579Z,99824.69
2023-05-07T14:48:00.422Z,99826.00
2023-05-07T14:50:31.106Z,99823.63
2023-05-07T14:53:06.092Z,99828.72
2023-05-07T14:55:35.645Z,99832.63
2023-05-07T14:58:03.810Z,99828.11
2023-05-07T15:00:31.561Z,99832.89
2023-05-07T15:03:07.892Z,99834.60
2023-05-07T15:05:37.183Z,99835.21
2023-05-07T15:08:06.193Z,99839.70
2023-05-07T15:10:42.243Z,99840.29
2023-05-07T15:13:15.295Z,99839.98
2023-05-07T15:15:47.732Z,99842.33
2023-05-07T15:20:50.134Z,99844.83
2023-05-07T15:23:17.911Z,99849.30
2023-05-07T15:25:47.734Z,99847.04
2023-05-07T15:28:16.858Z,99850.52
2023-05-07T15:30:44.977Z,99849.25
2023-05-07T15:33:12.770Z,99857.13
2023-05-07T15:35:43.280Z,99859.67
2023-05-07T15:38:11.976Z,99866.60
2023-05-07T15:40:42.987Z,99872.66
2023-05-07T15:43:14.088Z,99872.32
2023-05-07T15:45:43.606Z,99874.85
2023-05-07T15:48:11.930Z,99874.71
2023-05-07T15:50:39.684Z,99874.04
2023-05-07T15:53:08.982Z,99877.73
2023-05-07T15:55:37.868Z,99877.14
2023-05-07T15:58:06.717Z,99877.67
2023-05-07T16:00:36.316Z,99876.05
2023-05-07T16:03:04.215Z,99878.98
2023-05-07T16:05:32.098Z,99880.31
2023-05-07T16:08:00.308Z,99879.45
2023-05-07T16:10:28.771Z,99875.44
2023-05-07T16:12:56.587Z,99875.80
2023-05-07T16:15:24.317Z,99875.20
2023-05-07T16:17:57.972Z,99879.23
2023-05-07T16:20:33.850Z,99872.52
2023-05-07T16:23:02.226Z,99872.60
2023-05-07T16:25:31.582Z,99879.17
2023-05-07T16:27:59.271Z,99879.05
2023-05-07T16:30:26.958Z,99887.66
2023-05-07T16:32:54.660Z,99884.86
2023-05-07T16:35:23.046Z,99886.77
2023-05-07T16:37:51.306Z,99883.80
2023-05-07T16:40:19.643Z,99893.51
2023-05-07T16:42:48.620Z,99890.83
2023-05-07T16:45:16.575Z,99894.52
2023-05-07T16:47:45.649Z,99890.77
2023-05-07T16:50:13.492Z,99891.34
2023-05-07T16:52:41.823Z,99897.64
2023-05-07T16:55:09.886Z,99894.30
2023-05-07T16:57:37.709Z,99896.49
2023-05-07T17:00:07.579Z,99904.16
2023-05-07T17:02:35.783Z,99907.63
2023-05-07T17:05:06.303Z,99911.96
2023-05-07T17:07:34.732Z,99913.64
2023-05-07T17:10:03.250Z,99917.61
2023-05-07T17:12:31.859Z,99919.85
2023-05-07T17:15:00.142Z,99927.16
2023-05-07T17:17:27.857Z,99927.63
2023-05-07T17:19:55.608Z,99929.42
2023-05-07T17:22:25.096Z,99933.20
2023-05-07T17:24:53.042Z,99932.97
2023-05-07T17:27:21.305Z,99935.36
2023-05-07T17:29:49.075Z,99941.05
2023-05-07T17:32:22.299Z,99943.55
2023-05-07T17:34:54.556Z,99944.79
2023-05-07T17:37:23.773Z,99947.19
2023-05-07T17:39:52.826Z,99946.34
2023-05-07T17:42:21.308Z,99948.00
2023-05-07T17:44:49.038Z,99955.80
2023-05-07T17:47:17.059Z,99958.27
2023-05-07T17:49:45.332Z,99964.30
2023-05-07T17:52:13.057Z,99961.48
2023-05-07T17:54:41.251Z,99960.55
2023-05-07T17:57:08.934Z,99962.58
2023-05-07T17:59:37.142Z,99966.49
2023-05-07T18:02:04.832Z,99966.92
2023-05-07T18:04:33.006Z,99966.92
2023-05-07T18:07:01.206Z,99971.70
2023-05-07T18:09:28.908Z,99972.59
2023-05-07T18:11:56.593Z,99976.11
2023-05-07T18:14:26.150Z,99978.34
2023-05-07T18:16:54.441Z,99983.27
2023-05-07T18:19:22.628Z,99989.18
2023-05-07T18:21:51.558Z,99985.75
2023-05-07T18:24:20.040Z,99990.18
2023-05-07T18:26:49.215Z,99992.23
2023-05-07T18:29:16.932Z,99998.53
2023-05-07T18:31:45.857Z,99997.46
2023-05-07T18:34:14.577Z,99998.65
2023-05-07T18:36:43.093Z,100002.14
2023-05-07T18:39:11.116Z,100006.50
2023-05-07T18:41:38.954Z,100005.42
2023-05-07T18:44:07.286Z,100011.44
2023-05-07T18:46:35.052Z,100009.27
2023-05-07T18:49:03.498Z,100011.00
2023-05-07T18:51:31.781Z,100014.20
2023-05-07T18:53:59.618Z,100011.46
2023-05-07T18:56:27.339Z,100011.56
2023-05-07T18:58:55.060Z,100015.89
2023-05-07T19:01:22.766Z,100019.68
2023-05-07T19:03:51.143Z,100022.42
2023-05-07T19:06:21.238Z,100026.20
2023-05-07T19:08:49.113Z,100026.34
2023-05-07T19:11:16.874Z,100021.61
2023-05-07T19:13:44.610Z,100017.66
2023-05-07T19:16:14.044Z,100018.61
2023-05-07T19:18:42.363Z,100017.46
2023-05-07T19:21:10.665Z,100016.73
2023-05-07T19:23:41.936Z,100020.46
2023-05-07T19:26:10.704Z,100019.66
2023-05-07T19:28:45.158Z,100023.16
2023-05-07T19:31:21.500Z,100027.92
2023-05-07T19:33:49.902Z,100027.98
2023-05-07T19:36:18.330Z,100027.25
2023-05-07T19:38:46.993Z,100027.38
2023-05-07T19:41:14.769Z,100033.54
2023-05-07T19:43:45.128Z,100035.09
2023-05-07T19:46:13.100Z,100035.50
2023-05-07T19:48:41.311Z,100035.87
2023-05-07T19:51:10.256Z,100032.23
2023-05-07T19:53:38.402Z,100038.38
2023-05-07T19:56:09.654Z,100034.34
2023-05-07T19:58:38.729Z,100032.58
2023-05-07T20:01:06.884Z,100029.95
2023-05-07T20:03:35.745Z,100032.95
2023-05-07T20:06:04.184Z,100034.20
2023-05-07T20:08:31.910Z,100037.05
2023-05-07T20:11:02.508Z,100035.44
2023-05-07T20:13:30.361Z,100042.33
2023-05-07T20:16:02.304Z,100040.59
2023-05-07T20:18:30.668Z,100035.11
2023-05-07T20:20:59.086Z,100032.04
2023-05-07T20:23:27.019Z,100032.98
2023-05-07T20:25:54.868Z,100039.42
2023-05-07T20:28:22.651Z,100040.84
2023-05-07T20:30:50.628Z,100045.41
2023-05-07T20:33:18.837Z,100049.36
2023-05-07T20:35:47.091Z,100047.92
2023-05-07T20:38:14.885Z,100049.86
2023-05-07T20:40:42.616Z,100053.73
2023-05-07T20:43:10.401Z,100055.68
2023-05-07T20:45:38.342Z,100059.06
2023-05-07T20:48:06.579Z,100063.65
2023-05-07T20:50:34.840Z,100060.94
2023-05-07T20:53:02.766Z,100063.89
2023-05-07T20:55:30.598Z,100067.77
2023-05-07T20:57:58.303Z,100069.19
2023-05-07T21:00:26.022Z,100071.48
2023-05-07T21:02:54.365Z,100073.42
2023-05-07T21:05:22.880Z,100075.20
2023-05-07T21:07:50.701Z,100074.65
2023-05-07T21:10:18.417Z,100075.88
2023-05-07T21:12:46.134Z,100081.70
2023-05-07T21:15:13.883Z,100088.50
2023-05-07T21:17:42.071Z,100090.62
2023-05-07T21:20:10.864Z,100092.30
2023-05-07T21:22:38.965Z,100086.65
2023-05-07T21:25:06.971Z,100086.94
2023-05-07T21:27:34.692Z,100087.95
2023-05-07T21:30:04.985Z,100088.64
2023-05-07T21:32:33.304Z,100094.29
2023-05-07T21:35:01.861Z,100100.09
2023-05-07T21:37:29.595Z,100098.62
2023-05-07T21:39:57.324Z,100094.77
2023-05-07T21:42:25.473Z,100093.19
2023-05-07T21:44:53.203Z,100090.27
2023-05-07T21:47:21.456Z,100097.55
2023-05-07T21:49:49.848Z,100096.44
2023-05-07T21:52:18.000Z,100102.42
2023-05-07T21:54:45.840Z,100106.98
2023-05-07T21:57:13.513Z,100105.20
2023-05-07T21:59:41.225Z,100108.08
2023-05-07T22:02:09.382Z,100108.77
2023-05-07T22:04:37.814Z,100110.35
2023-05-07T22:07:05.606Z,100109.51
2023-05-07T22:09:33.351Z,100106.68
2023-05-07T22:12:01.538Z,100109.77
2023-05-07T22:14:29.332Z,100112.46
2023-05-07T22:16:57.510Z,100110.52
2023-05-07T22:19:26.017Z,100111.59
2023-05-07T22:21:53.748Z,100111.76
2023-05-07T22:24:21.501Z,100114.28
2023-05-07T22:26:49.613Z,100114.48
2023-05-07T22:29:17.482Z,100114.84
2023-05-07T22:31:45.736Z,100110.74
2023-05-07T22:34:14.038Z,100109.89
2023-05-07T22:36:41.957Z,100107.67
2023-05-07T22:39:10.122Z,100107.02
2023-05-07T22:41:37.899Z,100106.73
2023-05-07T22:44:06.674Z,100103.06
2023-05-07T22:46:34.933Z,100105.67
2023-05-07T22:49:03.444Z,100102.17
2023-05-07T22:51:31.398Z,100095.67
2023-05-07T22:53:59.150Z,100099.19
2023-05-07T22:56:26.949Z,100099.44
2023-05-07T22:58:54.666Z,100096.73
2023-05-07T23:01:23.038Z,100098.67
2023-05-07T23:03:51.633Z,100093.48
2023-05-07T23:06:22.158Z,100090.84
2023-05-07T23:08:49.852Z,100089.27
2023-05-07T23:11:17.637Z,100085.70
2023-05-07T23:13:45.393Z,100088.65
2023-05-07T23:16:13.481Z,100086.17
2023-05-07T23:18:41.636Z,100086.88
2023-05-07T23:21:09.299Z,100085.89
2023-05-07T23:23:37.056Z,100088.04
2023-05-07T23:26:05.023Z,100088.54
2023-05-07T23:28:33.150Z,100092.21
2023-05-07T23:31:01.550Z,100093.45
2023-05-07T23:33:29.285Z,100090.84
2023-05-07T23:36:04.230Z,100089.63
2023-05-07T23:38:32.882Z,100082.84
2023-05-07T23:41:01.404Z,100082.44
2023-05-07T23:43:29.544Z,100081.95
2023-05-07T23:45:57.273Z,100085.52
2023-05-07T23:48:25.023Z,100088.50
2023-05-07T23:50:52.763Z,100088.02
2023-05-07T23:53:20.475Z,100086.45
2023-05-07T23:55:48.651Z,100085.38
2023-05-07T23:58:16.931Z,100087.80
